createdAt,value
2022-08-07T00:06:56.748Z,22.18
2022-08-07T00:17:06.638Z,22.08
2022-08-07T00:27:09.406Z,21.90
2022-08-07T00:37:13.472Z,21.86
2022-08-07T00:48:08.782Z,21.57
2022-08-07T00:57:44.408Z,21.51
2022-08-07T01:07:57.857Z,21.54
2022-08-07T01:18:00.466Z,21.34
2022-08-07T01:28:04.732Z,21.25
2022-08-07T01:38:10.411Z,21.27
2022-08-07T01:48:29.280Z,21.28
2022-08-07T01:58:41.013Z,21.15
2022-08-07T02:08:46.978Z,21.31
2022-08-07T02:19:05.474Z,21.32
2022-08-07T02:29:26.226Z,21.29
2022-08-07T02:39:43.495Z,21.27
2022-08-07T02:49:59.619Z,21.29
2022-08-07T03:00:11.247Z,21.28
2022-08-07T03:10:17.064Z,21.37
2022-08-07T03:20:20.517Z,21.33
2022-08-07T03:30:24.371Z,21.34
2022-08-07T03:40:30.980Z,21.33
2022-08-07T03:50:55.652Z,21.15
2022-08-07T04:01:04.962Z,21.16
2022-08-07T04:12:21.085Z,21.20
2022-08-07T04:21:34.535Z,21.22
2022-08-07T04:32:03.476Z,21.24
2022-08-07T04:42:04.126Z,21.10
2022-08-07T04:52:51.289Z,19.79
2022-08-07T05:03:17.295Z,19.23
2022-08-07T05:14:55.283Z,18.92
2022-08-07T05:24:13.652Z,18.79
2022-08-07T05:34:26.359Z,18.79
2022-08-07T05:44:33.852Z,18.99
2022-08-07T05:54:53.556Z,19.02
2022-08-07T06:05:03.803Z,19.30
2022-08-07T06:15:09.965Z,19.69
2022-08-07T06:25:19.643Z,20.12
2022-08-07T06:35:22.677Z,20.50
2022-08-07T06:45:25.943Z,20.71
2022-08-07T06:55:53.676Z,20.92
2022-08-07T07:06:04.893Z,21.18
2022-08-07T07:16:19.786Z,21.25
2022-08-07T07:26:35.182Z,21.28
2022-08-07T07:36:42.029Z,21.63
2022-08-07T07:46:55.787Z,21.69
2022-08-07T07:57:07.422Z,22.17
2022-08-07T08:07:13.514Z,22.57
2022-08-07T08:17:57.733Z,23.63
2022-08-07T08:27:56.603Z,24.41
2022-08-07T08:38:04.605Z,24.52
2022-08-07T08:48:42.141Z,24.12
2022-08-07T08:59:20.373Z,25.84
2022-08-07T09:09:40.242Z,27.37
2022-08-07T09:20:34.772Z,27.55
2022-08-07T09:30:46.741Z,28.93
2022-08-07T09:41:05.438Z,28.89
2022-08-07T09:52:16.158Z,28.78
2022-08-07T10:02:34.519Z,29.94
2022-08-07T10:12:54.458Z,28.58
2022-08-07T10:24:04.875Z,29.86
2022-08-07T10:34:06.569Z,29.73
2022-08-07T10:44:28.403Z,30.73
2022-08-07T10:55:00.822Z,31.31
2022-08-07T11:05:35.962Z,31.02
2022-08-07T11:15:56.001Z,31.72
2022-08-07T11:26:14.131Z,30.89
2022-08-07T11:36:33.186Z,31.46
2022-08-07T11:46:38.027Z,32.24
2022-08-07T11:57:15.921Z,32.01
2022-08-07T12:07:27.107Z,32.47
2022-08-07T12:17:55.969Z,31.74
2022-08-07T12:28:16.205Z,32.14
2022-08-07T12:38:36.856Z,32.71
2022-08-07T12:48:55.114Z,32.22
2022-08-07T12:58:59.812Z,32.29
2022-08-07T13:10:20.542Z,32.21
2022-08-07T13:19:51.935Z,32.66
2022-08-07T13:30:19.027Z,31.73
2022-08-07T13:40:43.024Z,32.51
2022-08-07T13:51:00.163Z,32.11
2022-08-07T14:01:15.122Z,31.54
2022-08-07T14:11:23.983Z,31.07
2022-08-07T14:22:34.386Z,31.03
2022-08-07T14:32:19.129Z,30.60
2022-08-07T14:42:31.372Z,30.54
2022-08-07T14:52:38.852Z,30.42
2022-08-07T15:02:44.878Z,30.20
2022-08-07T15:13:06.166Z,29.51
2022-08-07T15:23:20.993Z,29.28
2022-08-07T15:33:43.877Z,29.25
2022-08-07T15:44:00.540Z,29.08
2022-08-07T15:54:04.693Z,28.69
2022-08-07T16:04:15.818Z,28.15
2022-08-07T16:14:30.053Z,27.88
2022-08-07T16:24:52.305Z,27.29
2022-08-07T16:35:58.362Z,27.01
2022-08-07T16:46:21.238Z,26.26
2022-08-07T16:56:20.787Z,26.25
2022-08-07T17:07:03.482Z,25.65
2022-08-07T17:17:17.536Z,25.56
2022-08-07T17:27:53.783Z,25.09
2022-08-07T17:38:32.029Z,24.81
2022-08-07T17:48:34.635Z,24.44
2022-08-07T17:58:56.864Z,24.23
2022-08-07T18:09:05.810Z,23.90
2022-08-07T18:21:06.590Z,23.66
2022-08-07T18:30:04.658Z,23.54
2022-08-07T18:40:17.995Z,23.34
2022-08-07T18:51:04.782Z,23.13
2022-08-07T19:02:18.305Z,23.09
2022-08-07T19:12:18.911Z,22.93
2022-08-07T19:22:31.278Z,22.56
2022-08-07T19:32:45.323Z,22.41
2022-08-07T19:42:49.532Z,22.20
2022-08-07T19:52:58.374Z,22.26
2022-08-07T20:03:34.829Z,22.09
2022-08-07T20:13:42.744Z,21.91
2022-08-07T20:23:53.825Z,21.79
2022-08-07T20:34:01.430Z,21.58
2022-08-07T20:44:10.451Z,21.35
2022-08-07T20:54:29.766Z,21.41
2022-08-07T21:04:34.840Z,21.23
2022-08-07T21:14:48.488Z,21.11
2022-08-07T21:25:12.257Z,21.18
2022-08-07T21:35:34.586Z,21.16
2022-08-07T21:46:24.557Z,20.75
2022-08-07T21:57:06.550Z,20.51
2022-08-07T22:07:19.256Z,20.47
2022-08-07T22:17:30.199Z,20.48
2022-08-07T22:28:24.621Z,20.32
2022-08-07T22:38:27.542Z,20.27
2022-08-07T22:49:00.801Z,20.04
2022-08-07T22:59:21.109Z,19.80
2022-08-07T23:10:05.986Z,19.56
2022-08-07T23:20:53.469Z,19.42
2022-08-07T23:32:49.445Z,19.56
2022-08-07T23:42:30.314Z,19.49
2022-08-07T23:53:02.037Z,19.52
